createdAt,value
2017-01-09T00:00:33.198Z,1017.55
2017-01-09T00:01:33.211Z,1017.54
2017-01-09T00:02:33.222Z,1017.54
2017-01-09T00:03:33.231Z,1017.54
2017-01-09T00:04:33.244Z,1017.54
2017-01-09T00:05:33.254Z,1017.6
2017-01-09T00:06:33.265Z,1017.64
2017-01-09T00:07:33.279Z,1017.65
2017-01-09T00:08:33.285Z,1017.64
2017-01-09T00:09:33.296Z,1017.62
2017-01-09T00:10:33.309Z,1017.58
2017-01-09T00:11:33.319Z,1017.62
2017-01-09T00:12:33.330Z,1017.54
2017-01-09T00:13:33.341Z,1017.53
2017-01-09T00:14:33.351Z,1017.56
2017-01-09T00:15:33.362Z,1017.55
2017-01-09T00:16:33.373Z,1017.58
2017-01-09T00:17:33.386Z,1017.54
2017-01-09T00:18:33.394Z,1017.5
2017-01-09T00:19:33.403Z,1017.5
2017-01-09T00:20:33.416Z,1017.51
2017-01-09T00:21:33.425Z,1017.49
2017-01-09T00:22:33.436Z,1017.47
2017-01-09T00:23:33.448Z,1017.48
2017-01-09T00:24:33.473Z,1017.46
2017-01-09T00:25:33.468Z,1017.44
2017-01-09T00:26:33.479Z,1017.41
2017-01-09T00:27:33.490Z,1017.4
2017-01-09T00:28:33.500Z,1017.39
2017-01-09T00:29:33.512Z,1017.42
2017-01-09T00:30:33.522Z,1017.41
2017-01-09T00:31:33.534Z,1017.43
2017-01-09T00:32:33.542Z,1017.42
2017-01-09T00:33:33.554Z,1017.44
2017-01-09T00:34:33.565Z,1017.42
2017-01-09T00:35:33.575Z,1017.38
2017-01-09T00:36:33.587Z,1017.33
2017-01-09T00:37:33.596Z,1017.36
2017-01-09T00:38:33.607Z,1017.35
2017-01-09T00:39:33.621Z,1017.34
2017-01-09T00:40:33.629Z,1017.33
2017-01-09T00:41:33.638Z,1017.34
2017-01-09T00:42:33.650Z,1017.33
2017-01-09T00:43:33.660Z,1017.32
2017-01-09T00:44:33.672Z,1017.31
2017-01-09T00:45:33.682Z,1017.35
2017-01-09T00:46:33.697Z,1017.33
2017-01-09T00:47:33.703Z,1017.34
2017-01-09T00:48:33.715Z,1017.32
2017-01-09T00:49:33.726Z,1017.37
2017-01-09T00:50:33.737Z,1017.38
2017-01-09T00:51:33.746Z,1017.35
2017-01-09T00:52:33.757Z,1017.37
2017-01-09T00:53:33.770Z,1017.34
2017-01-09T00:54:33.778Z,1017.35
2017-01-09T00:55:33.790Z,1017.3
2017-01-09T00:56:33.802Z,1017.32
2017-01-09T00:57:33.810Z,1017.33
2017-01-09T00:58:33.821Z,1017.35
2017-01-09T00:59:33.836Z,1017.37
2017-01-09T01:00:33.842Z,1017.36
2017-01-09T01:01:33.855Z,1017.36
2017-01-09T01:02:33.863Z,1017.34
2017-01-09T01:03:33.875Z,1017.31
2017-01-09T01:04:33.888Z,1017.33
2017-01-09T01:05:33.895Z,1017.33
2017-01-09T01:06:33.907Z,1017.34
2017-01-09T01:07:33.917Z,1017.33
2017-01-09T01:08:33.931Z,1017.3
2017-01-09T01:09:33.938Z,1017.31
2017-01-09T01:10:33.950Z,1017.28
2017-01-09T01:11:33.961Z,1017.28
2017-01-09T01:12:33.972Z,1017.28
2017-01-09T01:13:33.985Z,1017.28
2017-01-09T01:14:33.993Z,1017.29
2017-01-09T01:15:34.002Z,1017.27
2017-01-09T01:16:34.015Z,1017.24
2017-01-09T01:17:34.025Z,1017.22
2017-01-09T01:18:34.034Z,1017.24
2017-01-09T01:19:34.046Z,1017.24
2017-01-09T01:20:34.057Z,1017.28
2017-01-09T01:21:34.065Z,1017.26
2017-01-09T01:22:34.078Z,1017.28
2017-01-09T01:23:34.088Z,1017.28
2017-01-09T01:24:34.100Z,1017.31
2017-01-09T01:25:34.109Z,1017.28
2017-01-09T01:26:34.120Z,1017.35
2017-01-09T01:27:34.130Z,1017.3
2017-01-09T01:28:34.142Z,1017.28
2017-01-09T01:29:34.154Z,1017.31
2017-01-09T01:30:34.165Z,1017.3
2017-01-09T01:31:34.178Z,1017.24
2017-01-09T01:32:34.184Z,1017.22
2017-01-09T01:33:34.195Z,1017.25
2017-01-09T01:34:34.206Z,1017.22
2017-01-09T01:35:34.218Z,1017.21
2017-01-09T01:36:34.229Z,1017.2
2017-01-09T01:37:34.238Z,1017.21
2017-01-09T01:38:34.249Z,1017.22
2017-01-09T01:39:34.260Z,1017.22
2017-01-09T01:40:34.271Z,1017.22
2017-01-09T01:41:34.282Z,1017.23
2017-01-09T01:42:34.291Z,1017.23
2017-01-09T01:43:34.301Z,1017.21
2017-01-09T01:44:34.313Z,1017.23
2017-01-09T01:45:34.324Z,1017.23
2017-01-09T01:46:34.336Z,1017.2
2017-01-09T01:47:34.347Z,1017.24
2017-01-09T01:48:34.357Z,1017.24
2017-01-09T01:49:34.365Z,1017.21
2017-01-09T01:50:34.378Z,1017.2
2017-01-09T01:51:34.387Z,1017.2
2017-01-09T01:52:34.401Z,1017.19
2017-01-09T01:53:34.410Z,1017.22
2017-01-09T01:54:34.420Z,1017.19
2017-01-09T01:55:34.432Z,1017.18
2017-01-09T01:56:34.442Z,1017.13
2017-01-09T01:57:34.451Z,1017.14
2017-01-09T01:58:34.463Z,1017.14
2017-01-09T01:59:34.474Z,1017.13
2017-01-09T02:00:34.484Z,1017.18
2017-01-09T02:01:34.493Z,1017.18
2017-01-09T02:02:34.504Z,1017.21
2017-01-09T02:03:34.517Z,1017.27
2017-01-09T02:04:34.528Z,1017.26
2017-01-09T02:05:34.538Z,1017.25
2017-01-09T02:06:34.554Z,1017.26
2017-01-09T02:07:34.559Z,1017.23
2017-01-09T02:08:34.571Z,1017.23
2017-01-09T02:09:34.580Z,1017.19
2017-01-09T02:10:34.591Z,1017.24
2017-01-09T02:11:34.601Z,1017.2
2017-01-09T02:12:34.612Z,1017.19
2017-01-09T02:13:34.691Z,1017.19
2017-01-09T02:14:34.633Z,1017.17
2017-01-09T02:15:34.643Z,1017.17
2017-01-09T02:16:34.657Z,1017.13
2017-01-09T02:17:34.665Z,1017.15
2017-01-09T02:18:34.676Z,1017.16
2017-01-09T02:19:34.688Z,1017.13
2017-01-09T02:20:34.699Z,1017.12
2017-01-09T02:21:34.711Z,1017.12
2017-01-09T02:22:34.718Z,1017.11
2017-01-09T02:23:34.730Z,1017.1
2017-01-09T02:24:34.742Z,1017.11
2017-01-09T02:25:34.752Z,1017.11
2017-01-09T02:26:34.762Z,1017.12
2017-01-09T02:27:34.773Z,1017.13
2017-01-09T02:28:34.784Z,1017.07
2017-01-09T02:29:34.793Z,1017.07
2017-01-09T02:30:34.806Z,1017.08
2017-01-09T02:31:34.815Z,1017.07
2017-01-09T02:32:34.828Z,1017.05
2017-01-09T02:33:34.837Z,1017.06
2017-01-09T02:34:34.847Z,1017.08
2017-01-09T02:35:34.859Z,1017.08
2017-01-09T02:36:34.870Z,1017.1
2017-01-09T02:37:34.880Z,1017.11
2017-01-09T02:38:34.891Z,1017.01
2017-01-09T02:39:34.903Z,1017
2017-01-09T02:40:34.910Z,1016.99
2017-01-09T02:41:34.926Z,1016.97
2017-01-09T02:42:34.932Z,1016.97
2017-01-09T02:43:34.945Z,1016.92
2017-01-09T02:44:34.955Z,1016.96
2017-01-09T02:45:34.965Z,1016.96
2017-01-09T02:46:34.975Z,1016.92
2017-01-09T02:47:34.990Z,1016.95
2017-01-09T02:48:35.000Z,1016.92
2017-01-09T02:49:35.007Z,1016.9
2017-01-09T02:50:35.018Z,1016.9
2017-01-09T02:51:35.028Z,1016.91
2017-01-09T02:52:35.041Z,1016.91
2017-01-09T02:53:35.051Z,1016.93
2017-01-09T02:54:35.062Z,1016.93
2017-01-09T02:55:35.071Z,1016.94
2017-01-09T02:56:35.081Z,1016.96
2017-01-09T02:57:35.093Z,1016.94
2017-01-09T02:58:35.105Z,1016.93
2017-01-09T02:59:35.116Z,1016.93
2017-01-09T03:00:35.124Z,1016.94
2017-01-09T03:01:35.135Z,1016.91
2017-01-09T03:02:35.145Z,1016.91
2017-01-09T03:03:35.156Z,1016.93
2017-01-09T03:04:35.166Z,1016.91
2017-01-09T03:05:35.177Z,1016.91
2017-01-09T03:06:35.187Z,1016.91
2017-01-09T03:07:35.198Z,1016.92
2017-01-09T03:08:35.212Z,1016.9
2017-01-09T03:09:35.220Z,1016.89
2017-01-09T03:10:35.231Z,1016.91
2017-01-09T03:11:35.240Z,1016.89
2017-01-09T03:12:35.253Z,1016.86
2017-01-09T03:13:35.263Z,1016.88
2017-01-09T03:14:35.273Z,1016.87
2017-01-09T03:15:35.283Z,1016.86
2017-01-09T03:16:35.294Z,1016.87
2017-01-09T03:17:35.304Z,1016.81
2017-01-09T03:18:35.314Z,1016.82
2017-01-09T03:19:35.327Z,1016.85
2017-01-09T03:20:35.340Z,1016.87
2017-01-09T03:21:35.349Z,1016.87
2017-01-09T03:22:35.359Z,1016.85
2017-01-09T03:23:35.370Z,1016.85
2017-01-09T03:24:35.381Z,1016.82
2017-01-09T03:25:35.390Z,1016.87
2017-01-09T03:26:35.401Z,1016.84
2017-01-09T03:27:35.412Z,1016.86
2017-01-09T03:28:35.423Z,1016.82
2017-01-09T03:29:35.435Z,1016.84
2017-01-09T03:30:35.445Z,1016.8
2017-01-09T03:31:35.455Z,1016.78
2017-01-09T03:32:35.465Z,1016.79
2017-01-09T03:33:35.477Z,1016.81
2017-01-09T03:34:35.487Z,1016.82
2017-01-09T03:35:35.500Z,1016.83
2017-01-09T03:36:35.509Z,1016.85
2017-01-09T03:37:35.519Z,1016.8
2017-01-09T03:38:35.530Z,1016.75
2017-01-09T03:39:35.540Z,1016.72
2017-01-09T03:40:35.552Z,1016.67
2017-01-09T03:41:35.563Z,1016.64
2017-01-09T03:42:35.572Z,1016.61
2017-01-09T03:43:35.585Z,1016.59
2017-01-09T03:44:35.594Z,1016.6
2017-01-09T03:45:35.605Z,1016.62
2017-01-09T03:46:35.615Z,1016.62
2017-01-09T03:47:35.627Z,1016.6
2017-01-09T03:48:35.637Z,1016.57
2017-01-09T03:49:35.649Z,1016.54
2017-01-09T03:50:35.659Z,1016.5
2017-01-09T03:51:35.670Z,1016.56
2017-01-09T03:52:35.681Z,1016.48
2017-01-09T03:53:35.691Z,1016.45
2017-01-09T03:54:35.702Z,1016.46
2017-01-09T03:55:35.716Z,1016.45
2017-01-09T03:56:35.723Z,1016.48
2017-01-09T03:57:35.733Z,1016.46
2017-01-09T03:58:35.746Z,1016.48
2017-01-09T03:59:35.760Z,1016.43
2017-01-09T04:00:35.766Z,1016.43
2017-01-09T04:01:35.776Z,1016.36
2017-01-09T04:02:35.786Z,1016.39
2017-01-09T04:03:35.799Z,1016.4
2017-01-09T04:04:35.807Z,1016.36
2017-01-09T04:05:35.819Z,1016.42
2017-01-09T04:06:35.830Z,1016.38
2017-01-09T04:07:35.843Z,1016.34
2017-01-09T04:08:35.851Z,1016.32
2017-01-09T04:09:35.863Z,1016.32
2017-01-09T04:10:35.873Z,1016.3
2017-01-09T04:11:35.885Z,1016.27
2017-01-09T04:12:35.894Z,1016.28
2017-01-09T04:13:35.904Z,1016.3
2017-01-09T04:14:35.916Z,1016.27
2017-01-09T04:15:35.927Z,1016.29
2017-01-09T04:16:35.941Z,1016.28
2017-01-09T04:17:35.947Z,1016.29
2017-01-09T04:18:35.958Z,1016.24
2017-01-09T04:19:35.969Z,1016.27
2017-01-09T04:20:35.981Z,1016.24
2017-01-09T04:21:35.991Z,1016.27
2017-01-09T04:22:36.002Z,1016.23
2017-01-09T04:23:36.012Z,1016.2
2017-01-09T04:24:36.023Z,1016.16
2017-01-09T04:25:36.033Z,1016.18
2017-01-09T04:26:36.043Z,1016.17
2017-01-09T04:27:36.055Z,1016.13
2017-01-09T04:28:36.067Z,1016.12
2017-01-09T04:29:36.077Z,1016.1
2017-01-09T04:30:36.090Z,1016.07
2017-01-09T04:31:36.097Z,1016.08
2017-01-09T04:32:36.112Z,1016.05
2017-01-09T04:33:36.121Z,1016.06
2017-01-09T04:34:36.130Z,1016.06
2017-01-09T04:35:36.141Z,1016.01
2017-01-09T04:36:36.153Z,1016.01
2017-01-09T04:37:36.161Z,1015.99
2017-01-09T04:38:36.175Z,1015.98
2017-01-09T04:39:36.184Z,1015.99
2017-01-09T04:40:36.194Z,1015.97
2017-01-09T04:41:36.205Z,1015.91
2017-01-09T04:42:36.215Z,1015.93
2017-01-09T04:43:36.227Z,1015.92
2017-01-09T04:44:36.238Z,1015.86
2017-01-09T04:45:36.247Z,1015.88
2017-01-09T04:46:36.259Z,1015.87
2017-01-09T04:47:36.270Z,1015.82
2017-01-09T04:48:36.280Z,1015.79
2017-01-09T04:49:36.290Z,1015.72
2017-01-09T04:50:36.302Z,1015.76
2017-01-09T04:51:36.312Z,1015.78
2017-01-09T04:52:36.322Z,1015.81
2017-01-09T04:53:36.332Z,1015.77
2017-01-09T04:54:36.343Z,1015.77
2017-01-09T04:55:36.354Z,1015.75
2017-01-09T04:56:36.367Z,1015.73
2017-01-09T04:57:36.377Z,1015.74
2017-01-09T04:58:36.390Z,1015.72
2017-01-09T04:59:36.397Z,1015.71
2017-01-09T05:00:36.409Z,1015.7
2017-01-09T05:01:36.419Z,1015.68
2017-01-09T05:02:36.431Z,1015.7
2017-01-09T05:03:36.441Z,1015.74
2017-01-09T05:04:36.452Z,1015.69
2017-01-09T05:05:36.463Z,1015.72
2017-01-09T05:06:36.475Z,1015.7
2017-01-09T05:07:36.483Z,1015.69
2017-01-09T05:08:36.495Z,1015.73
2017-01-09T05:09:36.505Z,1015.68
2017-01-09T05:10:36.515Z,1015.66
2017-01-09T05:11:36.527Z,1015.69
2017-01-09T05:12:36.537Z,1015.69
2017-01-09T05:13:36.551Z,1015.63
2017-01-09T05:14:36.558Z,1015.61
2017-01-09T05:15:36.570Z,1015.65
2017-01-09T05:16:36.580Z,1015.63
2017-01-09T05:17:36.591Z,1015.65
2017-01-09T05:18:36.605Z,1015.65
2017-01-09T05:19:36.613Z,1015.62
2017-01-09T05:20:36.624Z,1015.61
2017-01-09T05:21:36.634Z,1015.6
2017-01-09T05:22:36.644Z,1015.59
2017-01-09T05:23:36.655Z,1015.57
2017-01-09T05:24:36.667Z,1015.59
2017-01-09T05:25:36.677Z,1015.58
2017-01-09T05:26:36.688Z,1015.59
2017-01-09T05:27:36.698Z,1015.55
2017-01-09T05:28:36.709Z,1015.58
2017-01-09T05:29:36.719Z,1015.56
2017-01-09T05:30:36.731Z,1015.49
2017-01-09T05:31:36.741Z,1015.52
2017-01-09T05:32:36.751Z,1015.51
2017-01-09T05:33:36.763Z,1015.52
2017-01-09T05:34:36.774Z,1015.49
2017-01-09T05:35:36.784Z,1015.5
2017-01-09T05:36:36.794Z,1015.49
2017-01-09T05:37:36.806Z,1015.5
2017-01-09T05:38:36.816Z,1015.51
2017-01-09T05:39:36.825Z,1015.51
2017-01-09T05:40:36.838Z,1015.48
2017-01-09T05:41:36.848Z,1015.48
2017-01-09T05:42:36.860Z,1015.48
2017-01-09T05:43:36.872Z,1015.47
2017-01-09T05:44:36.880Z,1015.44
2017-01-09T05:45:36.893Z,1015.41
2017-01-09T05:46:36.901Z,1015.44
2017-01-09T05:47:36.912Z,1015.44
2017-01-09T05:48:36.926Z,1015.47
2017-01-09T05:49:36.934Z,1015.45
2017-01-09T05:50:36.943Z,1015.42
2017-01-09T05:51:36.955Z,1015.45
2017-01-09T05:52:36.965Z,1015.47
2017-01-09T05:53:36.976Z,1015.42
2017-01-09T05:54:36.987Z,1015.41
2017-01-09T05:55:36.998Z,1015.39
2017-01-09T05:56:37.011Z,1015.43
2017-01-09T05:57:37.021Z,1015.39
2017-01-09T05:58:37.031Z,1015.4
2017-01-09T05:59:37.041Z,1015.39
2017-01-09T06:00:37.051Z,1015.37
2017-01-09T06:01:37.062Z,1015.35
2017-01-09T06:02:37.072Z,1015.31
2017-01-09T06:03:37.085Z,1015.33
2017-01-09T06:04:37.094Z,1015.34
2017-01-09T06:05:37.104Z,1015.37
2017-01-09T06:06:37.115Z,1015.34
2017-01-09T06:07:37.127Z,1015.34
2017-01-09T06:08:37.136Z,1015.39
2017-01-09T06:09:37.146Z,1015.36
2017-01-09T06:10:37.157Z,1015.37
2017-01-09T06:11:37.168Z,1015.34
2017-01-09T06:12:37.181Z,1015.35
2017-01-09T06:13:37.191Z,1015.36
2017-01-09T06:14:37.199Z,1015.35
2017-01-09T06:15:37.211Z,1015.33
2017-01-09T06:16:37.222Z,1015.37
2017-01-09T06:17:37.233Z,1015.37
2017-01-09T06:18:37.245Z,1015.36
2017-01-09T06:19:37.254Z,1015.38
2017-01-09T06:20:37.266Z,1015.36
2017-01-09T06:21:37.277Z,1015.39
2017-01-09T06:22:37.287Z,1015.37
2017-01-09T06:23:37.300Z,1015.41
2017-01-09T06:24:37.308Z,1015.39
2017-01-09T06:25:37.319Z,1015.37
2017-01-09T06:26:37.329Z,1015.39
2017-01-09T06:27:37.339Z,1015.39
2017-01-09T06:28:37.350Z,1015.38
2017-01-09T06:29:37.360Z,1015.41
2017-01-09T06:30:37.371Z,1015.38
2017-01-09T06:31:37.384Z,1015.38
2017-01-09T06:32:37.395Z,1015.39
2017-01-09T06:33:37.405Z,1015.37
2017-01-09T06:34:37.416Z,1015.34
2017-01-09T06:35:37.427Z,1015.36
2017-01-09T06:36:37.438Z,1015.33
2017-01-09T06:37:37.448Z,1015.31
2017-01-09T06:38:37.463Z,1015.31
2017-01-09T06:39:37.470Z,1015.3
2017-01-09T06:40:37.479Z,1015.32
2017-01-09T06:41:37.490Z,1015.31
2017-01-09T06:42:37.503Z,1015.28
2017-01-09T06:43:37.512Z,1015.29
2017-01-09T06:44:37.524Z,1015.26
2017-01-09T06:45:37.532Z,1015.27
2017-01-09T06:46:37.545Z,1015.27
2017-01-09T06:47:37.555Z,1015.26
2017-01-09T06:48:37.565Z,1015.22
2017-01-09T06:49:37.576Z,1015.2
2017-01-09T06:50:37.586Z,1015.23
2017-01-09T06:51:37.597Z,1015.21
2017-01-09T06:52:37.607Z,1015.2
2017-01-09T06:53:37.620Z,1015.17
2017-01-09T06:54:37.630Z,1015.18
2017-01-09T06:55:37.640Z,1015.2
2017-01-09T06:56:37.651Z,1015.15
2017-01-09T06:57:37.662Z,1015.17
2017-01-09T06:58:37.672Z,1015.19
2017-01-09T06:59:37.684Z,1015.18
2017-01-09T07:00:37.693Z,1015.15
2017-01-09T07:01:37.705Z,1015.12
2017-01-09T07:02:37.715Z,1015.12
2017-01-09T07:03:37.725Z,1015.08
2017-01-09T07:04:37.736Z,1015.11
2017-01-09T07:05:37.748Z,1015.16
2017-01-09T07:06:37.760Z,1015.12
2017-01-09T07:07:37.768Z,1015.1
2017-01-09T07:08:37.780Z,1015.12
2017-01-09T07:09:37.789Z,1015.11
2017-01-09T07:10:37.800Z,1015.13
2017-01-09T07:11:37.811Z,1015.1
2017-01-09T07:12:37.821Z,1015.14
2017-01-09T07:13:37.833Z,1015.11
2017-01-09T07:14:37.842Z,1015.16
2017-01-09T07:15:37.854Z,1015.09
2017-01-09T07:16:37.866Z,1015.13
2017-01-09T07:17:37.877Z,1015.12
2017-01-09T07:18:37.886Z,1015.13
2017-01-09T07:19:37.899Z,1015.14
2017-01-09T07:20:37.907Z,1015.15
2017-01-09T07:21:37.919Z,1015.16
2017-01-09T07:22:37.929Z,1015.17
2017-01-09T07:23:37.940Z,1015.17
2017-01-09T07:24:37.953Z,1015.2
2017-01-09T07:25:37.961Z,1015.17
2017-01-09T07:26:37.972Z,1015.18
2017-01-09T07:27:37.981Z,1015.2
2017-01-09T07:28:37.993Z,1015.19
2017-01-09T07:29:38.004Z,1015.18
2017-01-09T07:30:38.014Z,1015.21
2017-01-09T07:31:38.026Z,1015.19
2017-01-09T07:32:38.037Z,1015.19
2017-01-09T07:33:38.047Z,1015.25
2017-01-09T07:34:38.058Z,1015.25
2017-01-09T07:35:38.068Z,1015.22
2017-01-09T07:36:38.079Z,1015.19
2017-01-09T07:37:38.089Z,1015.2
2017-01-09T07:38:38.101Z,1015.25
2017-01-09T07:39:38.111Z,1015.25
2017-01-09T07:40:38.122Z,1015.27
2017-01-09T07:41:38.132Z,1015.26
2017-01-09T07:42:38.144Z,1015.26
2017-01-09T07:43:38.154Z,1015.27
2017-01-09T07:44:38.163Z,1015.26
2017-01-09T07:45:38.174Z,1015.28
2017-01-09T07:46:38.186Z,1015.3
2017-01-09T07:47:38.196Z,1015.24
2017-01-09T07:48:38.206Z,1015.26
2017-01-09T07:49:38.222Z,1015.25
2017-01-09T07:50:38.229Z,1015.24
2017-01-09T07:51:38.239Z,1015.28
2017-01-09T07:52:38.250Z,1015.25
2017-01-09T07:53:38.263Z,1015.27
2017-01-09T07:54:38.271Z,1015.29
2017-01-09T07:55:38.283Z,1015.29
2017-01-09T07:56:38.292Z,1015.3
2017-01-09T07:57:38.305Z,1015.31
2017-01-09T07:58:38.316Z,1015.33
2017-01-09T07:59:38.325Z,1015.3
2017-01-09T08:00:38.336Z,1015.3
2017-01-09T08:01:38.346Z,1015.29
2017-01-09T08:02:38.356Z,1015.29
2017-01-09T08:03:38.419Z,1015.29
2017-01-09T08:04:38.379Z,1015.28
2017-01-09T08:05:38.392Z,1015.31
2017-01-09T08:06:38.403Z,1015.34
2017-01-09T08:07:38.413Z,1015.36
2017-01-09T08:08:38.425Z,1015.32
2017-01-09T08:09:38.432Z,1015.38
2017-01-09T08:10:38.445Z,1015.37
2017-01-09T08:11:38.456Z,1015.43
2017-01-09T08:12:38.467Z,1015.37
2017-01-09T08:13:38.477Z,1015.36
2017-01-09T08:14:38.487Z,1015.38
2017-01-09T08:15:38.498Z,1015.4
2017-01-09T08:16:38.509Z,1015.37
2017-01-09T08:17:38.521Z,1015.37
2017-01-09T08:18:38.531Z,1015.35
2017-01-09T08:19:38.546Z,1015.38
2017-01-09T08:20:38.552Z,1015.38
2017-01-09T08:21:38.562Z,1015.42
2017-01-09T08:22:38.574Z,1015.41
2017-01-09T08:23:38.586Z,1015.4
2017-01-09T08:24:38.596Z,1015.42
2017-01-09T08:25:38.606Z,1015.43
2017-01-09T08:26:38.618Z,1015.45
2017-01-09T08:27:38.628Z,1015.42
2017-01-09T08:28:38.640Z,1015.37
2017-01-09T08:29:38.649Z,1015.4
2017-01-09T08:30:38.665Z,1015.39
2017-01-09T08:31:38.673Z,1015.35
2017-01-09T08:32:38.681Z,1015.37
2017-01-09T08:33:38.693Z,1015.36
2017-01-09T08:34:38.704Z,1015.36
2017-01-09T08:35:38.714Z,1015.37
2017-01-09T08:36:38.725Z,1015.33
2017-01-09T08:37:38.737Z,1015.34
2017-01-09T08:38:38.754Z,1015.34
2017-01-09T08:39:38.757Z,1015.31
2017-01-09T08:40:38.768Z,1015.29
2017-01-09T08:41:38.780Z,1015.32
2017-01-09T08:42:38.789Z,1015.25
2017-01-09T08:43:38.801Z,1015.33
2017-01-09T08:44:38.812Z,1015.29
2017-01-09T08:45:38.822Z,1015.28
2017-01-09T08:46:38.832Z,1015.25
2017-01-09T08:47:38.843Z,1015.25
2017-01-09T08:48:38.857Z,1015.22
2017-01-09T08:49:38.866Z,1015.21
2017-01-09T08:50:38.875Z,1015.22
2017-01-09T08:51:38.887Z,1015.21
2017-01-09T08:52:38.897Z,1015.2
2017-01-09T08:53:38.909Z,1015.18
2017-01-09T08:54:38.920Z,1015.15
2017-01-09T08:55:38.931Z,1015.13
2017-01-09T08:56:38.941Z,1015.11
2017-01-09T08:57:38.954Z,1015.11
2017-01-09T08:58:38.963Z,1015.07
2017-01-09T08:59:38.973Z,1015.11
2017-01-09T09:00:38.984Z,1015.08
2017-01-09T09:01:38.996Z,1015.08
2017-01-09T09:02:39.007Z,1015.07
2017-01-09T09:03:39.018Z,1015.06
2017-01-09T09:04:39.028Z,1015.13
2017-01-09T09:05:39.038Z,1015.05
2017-01-09T09:06:39.050Z,1015.06
2017-01-09T09:07:39.062Z,1015.06
2017-01-09T09:08:39.072Z,1015.04
2017-01-09T09:09:39.085Z,1015.03
2017-01-09T09:10:39.094Z,1015.03
2017-01-09T09:11:39.103Z,1014.97
2017-01-09T09:12:39.116Z,1014.99
2017-01-09T09:13:39.127Z,1014.97
2017-01-09T09:14:39.137Z,1014.97
2017-01-09T09:15:39.147Z,1014.97
2017-01-09T09:16:39.158Z,1014.91
2017-01-09T09:17:39.172Z,1014.9
2017-01-09T09:18:39.183Z,1014.9
2017-01-09T09:19:39.191Z,1014.9
2017-01-09T09:20:39.203Z,1014.87
2017-01-09T09:21:39.214Z,1014.85
2017-01-09T09:22:39.223Z,1014.89
2017-01-09T09:23:39.235Z,1014.88
2017-01-09T09:24:39.246Z,1014.89
2017-01-09T09:25:39.257Z,1014.91
2017-01-09T09:26:39.266Z,1014.89
2017-01-09T09:27:39.277Z,1014.9
2017-01-09T09:28:39.290Z,1014.88
2017-01-09T09:29:39.303Z,1014.87
2017-01-09T09:30:39.311Z,1014.84
2017-01-09T09:31:39.322Z,1014.87
2017-01-09T09:32:39.333Z,1014.76
2017-01-09T09:33:39.353Z,1014.75
2017-01-09T09:34:39.354Z,1014.72
2017-01-09T09:35:39.367Z,1014.79
2017-01-09T09:36:39.377Z,1014.73
2017-01-09T09:37:39.387Z,1014.71
2017-01-09T09:38:39.398Z,1014.71
2017-01-09T09:39:39.413Z,1014.68
2017-01-09T09:40:39.423Z,1014.64
2017-01-09T09:41:39.434Z,1014.68
2017-01-09T09:42:39.443Z,1014.68
2017-01-09T09:43:39.455Z,1014.67
2017-01-09T09:44:39.466Z,1014.77
2017-01-09T09:45:39.476Z,1014.75
2017-01-09T09:46:39.491Z,1014.72
2017-01-09T09:47:39.500Z,1014.72
2017-01-09T09:48:39.509Z,1014.74
2017-01-09T09:49:39.523Z,1014.72
2017-01-09T09:50:39.532Z,1014.7
2017-01-09T09:51:39.544Z,1014.66
2017-01-09T09:52:39.554Z,1014.69
2017-01-09T09:53:39.565Z,1014.68
2017-01-09T09:54:39.576Z,1014.64
2017-01-09T09:55:39.588Z,1014.64
2017-01-09T09:56:39.598Z,1014.62
2017-01-09T09:57:39.608Z,1014.64
2017-01-09T09:58:39.620Z,1014.58
2017-01-09T09:59:39.630Z,1014.59
2017-01-09T10:00:39.642Z,1014.63
2017-01-09T10:01:39.653Z,1014.59
2017-01-09T10:02:39.666Z,1014.57
2017-01-09T10:03:39.675Z,1014.61
2017-01-09T10:04:39.687Z,1014.59
2017-01-09T10:05:39.699Z,1014.57
2017-01-09T10:06:39.708Z,1014.56
2017-01-09T10:07:39.721Z,1014.57
2017-01-09T10:08:39.733Z,1014.56
2017-01-09T10:09:39.742Z,1014.51
2017-01-09T10:10:39.752Z,1014.47
2017-01-09T10:11:39.763Z,1014.51
2017-01-09T10:12:39.775Z,1014.47
2017-01-09T10:13:39.787Z,1014.5
2017-01-09T10:14:39.796Z,1014.48
2017-01-09T10:15:39.810Z,1014.44
2017-01-09T10:16:39.820Z,1014.38
2017-01-09T10:17:39.831Z,1014.38
2017-01-09T10:18:39.842Z,1014.41
2017-01-09T10:19:39.854Z,1014.39
2017-01-09T10:20:39.864Z,1014.41
2017-01-09T10:21:39.874Z,1014.37
2017-01-09T10:22:39.885Z,1014.35
2017-01-09T10:23:39.897Z,1014.34
2017-01-09T10:24:39.909Z,1014.33
2017-01-09T10:25:39.922Z,1014.32
2017-01-09T10:26:39.931Z,1014.32
2017-01-09T10:27:39.941Z,1014.31
2017-01-09T10:28:39.952Z,1014.33
2017-01-09T10:29:39.963Z,1014.29
2017-01-09T10:30:39.975Z,1014.3
2017-01-09T10:31:39.987Z,1014.27
2017-01-09T10:32:39.996Z,1014.3
2017-01-09T10:33:40.008Z,1014.28
2017-01-09T10:34:40.020Z,1014.29
2017-01-09T10:35:40.031Z,1014.31
2017-01-09T10:36:40.042Z,1014.3
2017-01-09T10:37:40.053Z,1014.25
2017-01-09T10:38:40.068Z,1014.24
2017-01-09T10:39:40.074Z,1014.23
2017-01-09T10:40:40.086Z,1014.22
2017-01-09T10:41:40.099Z,1014.21
2017-01-09T10:42:40.111Z,1014.22
2017-01-09T10:43:40.121Z,1014.2
2017-01-09T10:44:40.133Z,1014.16
2017-01-09T10:45:40.143Z,1014.17
2017-01-09T10:46:40.157Z,1014.14
2017-01-09T10:47:40.165Z,1014.11
2017-01-09T10:48:40.180Z,1014.13
2017-01-09T10:49:40.188Z,1014.04
2017-01-09T10:50:40.198Z,1014.03
2017-01-09T10:51:40.211Z,1014.05
2017-01-09T10:52:40.223Z,1014.02
2017-01-09T10:53:40.234Z,1014.04
2017-01-09T10:54:40.244Z,1014.03
2017-01-09T10:55:40.256Z,1014.02
2017-01-09T10:56:40.267Z,1014.01
2017-01-09T10:57:40.279Z,1013.94
2017-01-09T10:58:40.289Z,1013.98
2017-01-09T10:59:40.300Z,1013.94
2017-01-09T11:00:40.311Z,1013.92
2017-01-09T11:01:40.323Z,1013.87
2017-01-09T11:02:40.335Z,1013.85
2017-01-09T11:03:40.346Z,1013.83
2017-01-09T11:04:40.356Z,1013.79
2017-01-09T11:05:40.369Z,1013.79
2017-01-09T11:06:40.379Z,1013.74
2017-01-09T11:07:40.391Z,1013.77
2017-01-09T11:08:40.402Z,1013.72
2017-01-09T11:09:40.412Z,1013.69
2017-01-09T11:10:40.425Z,1013.67
2017-01-09T11:11:40.436Z,1013.69
2017-01-09T11:12:40.448Z,1013.64
2017-01-09T11:13:40.462Z,1013.59
2017-01-09T11:14:40.489Z,1013.6
2017-01-09T11:15:40.481Z,1013.58
2017-01-09T11:16:40.492Z,1013.54
2017-01-09T11:17:40.504Z,1013.59
2017-01-09T11:18:40.516Z,1013.57
2017-01-09T11:19:40.526Z,1013.59
2017-01-09T11:20:40.537Z,1013.57
2017-01-09T11:21:40.548Z,1013.57
2017-01-09T11:22:40.561Z,1013.56
2017-01-09T11:23:40.571Z,1013.54
2017-01-09T11:24:40.584Z,1013.55
2017-01-09T11:25:40.595Z,1013.51
2017-01-09T11:26:40.604Z,1013.54
2017-01-09T11:27:40.616Z,1013.49
2017-01-09T11:28:40.627Z,1013.43
2017-01-09T11:29:40.639Z,1013.45
2017-01-09T11:30:40.651Z,1013.44
2017-01-09T11:31:40.662Z,1013.38
2017-01-09T11:32:40.675Z,1013.4
2017-01-09T11:33:40.684Z,1013.4
2017-01-09T11:34:40.695Z,1013.39
2017-01-09T11:35:40.706Z,1013.39
2017-01-09T11:36:40.718Z,1013.4
2017-01-09T11:37:40.729Z,1013.38
2017-01-09T11:38:40.742Z,1013.36
2017-01-09T11:39:40.752Z,1013.32
2017-01-09T11:40:40.764Z,1013.32
2017-01-09T11:41:40.777Z,1013.36
2017-01-09T11:42:40.786Z,1013.32
2017-01-09T11:43:40.797Z,1013.33
2017-01-09T11:44:40.810Z,1013.32
2017-01-09T11:45:40.819Z,1013.3
2017-01-09T11:46:40.831Z,1013.3
2017-01-09T11:47:40.843Z,1013.3
2017-01-09T11:48:40.858Z,1013.29
2017-01-09T11:49:40.865Z,1013.24
2017-01-09T11:50:40.876Z,1013.26
2017-01-09T11:51:40.891Z,1013.21
2017-01-09T11:52:40.899Z,1013.2
2017-01-09T11:53:40.911Z,1013.18
2017-01-09T11:54:40.922Z,1013.15
2017-01-09T11:55:40.933Z,1013.16
2017-01-09T11:56:40.943Z,1013.19
2017-01-09T11:57:40.955Z,1013.13
2017-01-09T11:58:40.966Z,1013.14
2017-01-09T11:59:40.976Z,1013.13
2017-01-09T12:00:40.988Z,1013.1
2017-01-09T12:01:40.998Z,1013.04
2017-01-09T12:02:41.011Z,1013.05
2017-01-09T12:03:41.022Z,1013.07
2017-01-09T12:04:41.036Z,1013
2017-01-09T12:05:41.043Z,1012.96
2017-01-09T12:06:41.056Z,1012.99
2017-01-09T12:07:41.066Z,1012.98
2017-01-09T12:08:41.077Z,1012.93